Time;durP1;ratioP1;P1;durP2;ratioP2;P2;SDS_P1;SDS_P2;PMS_P1;PMS_P2;Temp;Humidity;BMP_temperature;BMP_pressure;BME280_temperature;BME280_humidity;BME280_pressure;Samples;Min_cycle;Max_cycle;Signal;HPM_P1;HPM_P2
2023/03/25 00:00:56;;;;;;;2.10;1.30;;;8.60;99.90;;;;;;5011339;28;20201;-78
2023/03/25 00:03:25;;;;;;;2.83;1.40;;;8.60;99.90;;;;;;5011872;28;20216;-78
2023/03/25 00:05:53;;;;;;;2.83;1.50;;;8.50;99.90;;;;;;5012373;28;20240;-77
2023/03/25 00:08:23;;;;;;;3.00;1.40;;;8.50;99.90;;;;;;5010998;28;20594;-77
2023/03/25 00:10:54;;;;;;;4.83;1.40;;;8.40;99.90;;;;;;5012485;28;20650;-77
2023/03/25 00:13:22;;;;;;;3.27;1.27;;;8.40;99.90;;;;;;5010877;28;20225;-79
2023/03/25 00:15:52;;;;;;;4.27;1.50;;;8.30;99.90;;;;;;5012197;28;20212;-76
2023/03/25 00:18:21;;;;;;;2.07;1.50;;;8.30;99.90;;;;;;5011901;28;20618;-78
2023/03/25 00:20:50;;;;;;;1.60;1.50;;;8.30;99.90;;;;;;5011221;28;20312;-77
2023/03/25 00:23:19;;;;;;;2.47;1.43;;;8.30;99.90;;;;;;5011756;28;20206;-77
2023/03/25 00:25:48;;;;;;;3.10;1.43;;;8.30;99.90;;;;;;5011618;28;20582;-77
2023/03/25 00:28:18;;;;;;;2.87;1.60;;;8.20;99.90;;;;;;5012343;28;20276;-76
2023/03/25 00:30:46;;;;;;;2.30;1.43;;;8.20;99.90;;;;;;5010609;28;20232;-77
2023/03/25 00:33:15;;;;;;;2.27;1.53;;;8.20;99.90;;;;;;5011869;28;20213;-78
2023/03/25 00:35:43;;;;;;;3.33;1.30;;;8.10;99.90;;;;;;5011885;28;20281;-76
2023/03/25 00:38:12;;;;;;;2.23;1.43;;;8.00;99.90;;;;;;5014188;28;20263;-77
2023/03/25 00:40:40;;;;;;;4.30;1.30;;;8.00;99.90;;;;;;5015960;28;20643;-78
2023/03/25 00:43:13;;;;;;;4.23;1.67;;;7.90;99.90;;;;;;5015867;28;20288;-76
2023/03/25 00:45:42;;;;;;;1.97;1.30;;;7.90;99.90;;;;;;5015948;28;20214;-78
2023/03/25 00:48:11;;;;;;;2.93;1.50;;;7.90;99.90;;;;;;5015934;28;20228;-77
2023/03/25 00:50:40;;;;;;;2.83;1.40;;;7.90;99.90;;;;;;5017806;28;20260;-78
2023/03/25 00:53:09;;;;;;;2.60;1.43;;;7.90;99.90;;;;;;5015392;28;20269;-78
2023/03/25 00:55:37;;;;;;;3.03;1.53;;;7.80;99.90;;;;;;5015131;28;20256;-77
2023/03/25 00:58:05;;;;;;;2.77;1.40;;;7.90;99.90;;;;;;5015419;28;20210;-78
2023/03/25 01:00:33;;;;;;;4.37;1.30;;;7.90;99.90;;;;;;5015759;28;20296;-77
2023/03/25 01:03:03;;;;;;;2.00;1.43;;;7.90;99.90;;;;;;5015203;28;20217;-76
2023/03/25 01:05:33;;;;;;;3.30;1.40;;;7.90;99.90;;;;;;5010646;28;20217;-77
2023/03/25 01:08:02;;;;;;;5.13;1.40;;;7.80;99.90;;;;;;5015208;28;20297;-78
2023/03/25 01:10:30;;;;;;;4.07;1.43;;;7.70;99.90;;;;;;5015371;28;20305;-78
2023/03/25 01:12:58;;;;;;;1.93;1.40;;;7.70;99.90;;;;;;5013555;28;20219;-78
2023/03/25 01:15:26;;;;;;;2.90;1.30;;;7.70;99.90;;;;;;5015531;28;20574;-78
2023/03/25 01:17:54;;;;;;;1.60;1.20;;;7.60;99.90;;;;;;5015928;28;20271;-77
2023/03/25 01:20:25;;;;;;;3.17;1.37;;;7.60;99.90;;;;;;5015646;28;20229;-77
2023/03/25 01:22:53;;;;;;;1.93;1.40;;;7.50;99.90;;;;;;5013716;28;20216;-78
2023/03/25 01:25:22;;;;;;;2.40;1.33;;;7.60;99.90;;;;;;5015155;28;20212;-76
2023/03/25 01:27:50;;;;;;;4.47;1.60;;;7.50;99.90;;;;;;5014813;28;20648;-78
2023/03/25 01:30:18;;;;;;;2.30;1.30;;;7.60;99.90;;;;;;5013818;28;20232;-78
2023/03/25 01:32:46;;;;;;;1.33;1.20;;;7.60;99.90;;;;;;5014067;28;20776;-78
2023/03/25 01:35:15;;;;;;;4.60;1.37;;;7.70;99.90;;;;;;5014597;28;20217;-77
2023/03/25 01:37:46;;;;;;;3.97;1.50;;;7.70;99.90;;;;;;5014463;28;20209;-78
2023/03/25 01:40:19;;;;;;;2.63;1.23;;;7.70;99.90;;;;;;5014010;28;20308;-77
2023/03/25 01:42:47;;;;;;;3.60;1.60;;;7.80;99.90;;;;;;5014279;28;20190;-78
2023/03/25 01:45:28;;;;;;;3.53;1.40;;;7.80;99.90;;;;;;5015003;28;20235;-77
2023/03/25 01:48:06;;;;;;;2.93;1.50;;;7.90;99.90;;;;;;5012745;28;20215;-76
2023/03/25 01:50:36;;;;;;;4.53;1.50;;;7.90;99.90;;;;;;5016791;28;20243;-77
2023/03/25 01:53:07;;;;;;;3.10;1.30;;;8.00;99.90;;;;;;5013912;28;20237;-77
2023/03/25 01:55:38;;;;;;;2.40;1.07;;;8.00;99.90;;;;;;5013371;28;20665;-78
2023/03/25 01:58:11;;;;;;;2.13;1.03;;;8.10;99.90;;;;;;5014156;28;20629;-76
2023/03/25 02:00:40;;;;;;;2.67;1.40;;;8.10;99.90;;;;;;5014662;28;20209;-78
2023/03/25 02:03:09;;;;;;;5.17;1.33;;;8.10;99.90;;;;;;5013525;28;20216;-77
2023/03/25 02:05:44;;;;;;;2.90;1.27;;;8.20;99.90;;;;;;5013981;28;20667;-77
2023/03/25 02:08:15;;;;;;;2.60;1.23;;;8.20;99.90;;;;;;5013872;28;20632;-79
2023/03/25 02:10:46;;;;;;;1.67;1.00;;;8.30;99.90;;;;;;5014144;28;20576;-78
2023/03/25 02:13:15;;;;;;;2.30;1.10;;;8.30;99.90;;;;;;4993731;28;20731;-79
2023/03/25 02:16:00;;;;;;;2.90;1.23;;;8.30;99.90;;;;;;4994321;28;20679;-78
2023/03/25 02:18:39;;;;;;;1.80;1.10;;;8.30;99.90;;;;;;4994533;28;20222;-76
2023/03/25 02:21:48;;;;;;;3.23;1.30;;;8.30;99.90;;;;;;5010314;28;20651;-77
2023/03/25 02:25:00;;;;;;;3.17;1.10;;;8.30;99.90;;;;;;4985316;28;20691;-75
2023/03/25 02:27:44;;;;;;;2.67;1.10;;;8.30;99.90;;;;;;5012383;28;20229;-76
2023/03/25 02:30:50;;;;;;;2.60;1.30;;;8.40;99.90;;;;;;5014018;28;20264;-77
2023/03/25 02:33:54;;;;;;;4.20;1.23;;;8.40;99.90;;;;;;4993868;28;20214;-77
2023/03/25 02:36:55;;;;;;;2.67;1.17;;;8.30;99.90;;;;;;4989289;28;20281;-77
2023/03/25 02:39:29;;;;;;;3.97;1.20;;;8.30;99.90;;;;;;4971197;28;20217;-78
2023/03/25 02:42:04;;;;;;;4.13;1.17;;;8.40;99.90;;;;;;5013450;28;20201;-76
2023/03/25 02:44:38;;;;;;;4.17;1.23;;;8.30;99.90;;;;;;5013663;28;20194;-78
2023/03/25 02:47:09;;;;;;;3.33;1.27;;;8.40;99.90;;;;;;5015064;28;20201;-75
2023/03/25 02:49:42;;;;;;;3.73;1.27;;;8.40;99.90;;;;;;5014395;28;20221;-77
2023/03/25 02:52:15;;;;;;;3.50;1.40;;;8.40;99.90;;;;;;5014288;28;20248;-78
2023/03/25 02:54:47;;;;;;;3.17;1.10;;;8.40;99.90;;;;;;5012699;28;20308;-78
2023/03/25 02:57:18;;;;;;;3.13;1.10;;;8.40;99.90;;;;;;5013938;28;20225;-78
2023/03/25 02:59:49;;;;;;;3.63;1.13;;;8.40;99.90;;;;;;5013467;28;20268;-77
2023/03/25 03:02:18;;;;;;;5.40;1.47;;;8.30;99.90;;;;;;5013197;28;20214;-78
2023/03/25 03:04:48;;;;;;;2.97;1.30;;;8.30;99.90;;;;;;5012468;28;20216;-76
2023/03/25 03:07:24;;;;;;;5.30;1.50;;;8.30;99.90;;;;;;5013096;28;20225;-76
2023/03/25 03:09:59;;;;;;;4.73;1.33;;;8.20;99.90;;;;;;5013636;28;20193;-77
2023/03/25 03:12:46;;;;;;;3.50;1.00;;;8.30;99.90;;;;;;5011968;28;20233;-78
2023/03/25 03:15:26;;;;;;;3.47;1.27;;;8.30;99.90;;;;;;5013246;28;20197;-77
2023/03/25 03:18:14;;;;;;;3.53;0.90;;;8.40;99.90;;;;;;5013115;28;20193;-78
2023/03/25 03:20:54;;;;;;;3.50;1.50;;;8.30;99.90;;;;;;5012289;28;20206;-79
2023/03/25 03:23:27;;;;;;;4.73;1.47;;;8.30;99.90;;;;;;5012844;28;20201;-78
2023/03/25 03:26:04;;;;;;;2.90;0.90;;;8.30;99.90;;;;;;5013038;28;20329;-78
2023/03/25 03:28:36;;;;;;;3.20;1.17;;;8.30;99.90;;;;;;5010649;28;20289;-77
2023/03/25 03:31:09;;;;;;;3.47;1.10;;;8.20;99.90;;;;;;4993395;28;20623;-76
2023/03/25 03:33:43;;;;;;;3.07;1.10;;;8.20;99.90;;;;;;4992700;28;20236;-78
2023/03/25 03:36:14;;;;;;;3.07;1.20;;;8.20;99.90;;;;;;4993227;28;20276;-78
2023/03/25 03:38:47;;;;;;;3.83;1.20;;;8.20;99.90;;;;;;5008390;28;20635;-76
2023/03/25 03:41:20;;;;;;;4.33;1.20;;;8.20;99.90;;;;;;5012505;28;20253;-79
2023/03/25 03:43:52;;;;;;;2.43;0.97;;;8.20;99.90;;;;;;5012337;28;20217;-79
2023/03/25 03:46:25;;;;;;;1.93;1.10;;;8.20;99.90;;;;;;5011547;28;20222;-77
2023/03/25 03:48:56;;;;;;;3.60;1.00;;;8.10;99.90;;;;;;5012599;28;20308;-76
2023/03/25 03:51:29;;;;;;;3.07;1.03;;;8.10;99.90;;;;;;5014364;28;20201;-76
2023/03/25 03:54:00;;;;;;;2.80;0.80;;;8.00;99.90;;;;;;5012404;28;20256;-79
2023/03/25 03:56:35;;;;;;;4.67;1.30;;;7.90;99.90;;;;;;5011166;28;20241;-76
2023/03/25 03:59:13;;;;;;;2.43;1.10;;;7.80;99.90;;;;;;5012454;28;20193;-78
2023/03/25 04:01:45;;;;;;;3.83;1.20;;;7.60;99.90;;;;;;5012360;28;20299;-77
2023/03/25 04:04:19;;;;;;;2.20;1.00;;;7.60;99.90;;;;;;5011033;28;20230;-77
2023/03/25 04:06:55;;;;;;;4.30;1.53;;;7.60;99.90;;;;;;5012282;28;20632;-77
2023/03/25 04:09:33;;;;;;;3.03;1.00;;;7.50;99.90;;;;;;5012297;28;20205;-78
2023/03/25 04:12:08;;;;;;;4.70;1.17;;;7.40;99.90;;;;;;4994383;28;20663;-77
2023/03/25 04:14:37;;;;;;;5.53;1.50;;;7.40;99.90;;;;;;5011386;28;20504;-77
2023/03/25 04:17:06;;;;;;;3.90;1.10;;;7.40;99.90;;;;;;5011956;28;20213;-77
2023/03/25 04:19:34;;;;;;;3.77;1.20;;;7.30;99.90;;;;;;5012285;28;20301;-77
2023/03/25 04:22:02;;;;;;;3.63;1.20;;;7.20;99.90;;;;;;5010879;28;20617;-78
2023/03/25 04:24:31;;;;;;;3.73;1.00;;;7.20;99.90;;;;;;5012422;28;20297;-77
2023/03/25 04:27:02;;;;;;;3.53;1.10;;;7.20;99.90;;;;;;5011883;28;20300;-77
2023/03/25 04:29:32;;;;;;;4.37;1.10;;;7.10;99.90;;;;;;5012503;28;20277;-77
2023/03/25 04:32:01;;;;;;;4.27;1.17;;;7.00;99.90;;;;;;5010717;28;20244;-77
2023/03/25 04:34:29;;;;;;;4.07;1.50;;;7.00;99.90;;;;;;5011959;28;20252;-78
2023/03/25 04:36:57;;;;;;;3.20;1.10;;;6.90;99.90;;;;;;5011775;28;20217;-77
2023/03/25 04:39:28;;;;;;;5.23;1.33;;;6.90;99.90;;;;;;5012246;28;20546;-76
2023/03/25 04:41:56;;;;;;;6.00;1.30;;;6.90;99.90;;;;;;5010602;28;20213;-78
2023/03/25 04:44:25;;;;;;;4.40;1.53;;;7.00;99.90;;;;;;5012733;28;20208;-77
2023/03/25 04:46:55;;;;;;;4.50;1.17;;;6.90;99.90;;;;;;5012627;28;20297;-77
2023/03/25 04:49:24;;;;;;;3.47;1.10;;;7.00;99.90;;;;;;5011948;28;20217;-78
2023/03/25 04:51:55;;;;;;;3.27;1.30;;;7.00;99.90;;;;;;5012751;28;20252;-77
2023/03/25 04:54:24;;;;;;;4.07;1.40;;;7.00;99.90;;;;;;5012764;28;20320;-77
2023/03/25 04:56:52;;;;;;;5.30;1.27;;;7.00;99.90;;;;;;5014633;28;20305;-78
2023/03/25 04:59:22;;;;;;;5.47;1.50;;;7.00;99.90;;;;;;5016191;28;20210;-78
2023/03/25 05:01:51;;;;;;;4.20;1.40;;;7.00;99.90;;;;;;5014347;28;20237;-77
2023/03/25 05:04:23;;;;;;;6.20;1.60;;;7.10;99.90;;;;;;5012227;28;20210;-76
2023/03/25 05:06:51;;;;;;;4.53;1.30;;;7.10;99.90;;;;;;5012584;28;20194;-76
2023/03/25 05:09:21;;;;;;;3.47;1.37;;;7.20;99.90;;;;;;5012172;28;20214;-78
2023/03/25 05:11:50;;;;;;;3.13;1.13;;;7.10;99.90;;;;;;5012493;28;20304;-76
2023/03/25 05:14:20;;;;;;;2.50;1.10;;;7.20;99.90;;;;;;5011293;28;20261;-78
2023/03/25 05:16:49;;;;;;;6.50;1.23;;;7.20;99.90;;;;;;5010930;28;20706;-77
2023/03/25 05:19:19;;;;;;;3.83;1.40;;;7.30;99.90;;;;;;5012337;28;20221;-76
2023/03/25 05:21:48;;;;;;;7.13;1.50;;;7.30;99.90;;;;;;5011812;28;20293;-77
2023/03/25 05:24:16;;;;;;;4.40;1.53;;;7.30;99.90;;;;;;5013392;28;20292;-77
2023/03/25 05:26:44;;;;;;;4.37;1.50;;;7.30;99.90;;;;;;5015302;28;20212;-77
2023/03/25 05:29:14;;;;;;;6.60;1.40;;;7.30;99.90;;;;;;5015098;28;20706;-76
2023/03/25 05:31:44;;;;;;;7.80;1.43;;;7.40;99.90;;;;;;5015318;28;20220;-78
2023/03/25 05:34:13;;;;;;;5.47;1.40;;;7.50;99.90;;;;;;5013729;28;20314;-76
2023/03/25 05:36:42;;;;;;;5.33;1.40;;;7.50;99.90;;;;;;5014815;28;20221;-76
2023/03/25 05:39:12;;;;;;;4.83;1.30;;;7.60;99.90;;;;;;5012044;28;20206;-78
2023/03/25 05:41:40;;;;;;;5.90;1.30;;;7.60;99.90;;;;;;4994855;28;20268;-78
2023/03/25 05:44:14;;;;;;;4.77;1.33;;;7.70;99.90;;;;;;5010528;28;20214;-77
2023/03/25 05:46:42;;;;;;;7.53;1.40;;;7.70;99.90;;;;;;5014901;28;20201;-78
2023/03/25 05:49:10;;;;;;;5.70;2.50;;;7.80;99.90;;;;;;5014762;28;20240;-77
2023/03/25 05:51:38;;;;;;;10.07;5.37;;;7.90;99.90;;;;;;5013730;28;20242;-76
2023/03/25 05:54:09;;;;;;;12.80;5.57;;;8.00;99.90;;;;;;5014002;28;20320;-76
2023/03/25 05:56:41;;;;;;;4.23;1.27;;;8.00;99.90;;;;;;5014475;28;20563;-77
2023/03/25 05:59:10;;;;;;;6.97;2.90;;;8.20;99.90;;;;;;5013413;28;20214;-77
2023/03/25 06:01:40;;;;;;;5.80;1.50;;;8.30;99.90;;;;;;5012210;28;20267;-76
2023/03/25 06:04:11;;;;;;;5.20;1.87;;;8.40;99.90;;;;;;5011180;28;20202;-77
2023/03/25 06:06:40;;;;;;;7.90;3.80;;;8.50;99.90;;;;;;5009066;28;20648;-76
2023/03/25 06:09:09;;;;;;;6.43;3.13;;;8.60;99.90;;;;;;5012650;28;20206;-78
2023/03/25 06:11:38;;;;;;;6.27;3.37;;;8.60;99.90;;;;;;5008663;28;20213;-79
2023/03/25 06:14:08;;;;;;;3.40;1.17;;;8.70;99.90;;;;;;5013209;28;20533;-78
2023/03/25 06:16:36;;;;;;;8.17;4.60;;;8.70;99.90;;;;;;5013479;28;20832;-77
2023/03/25 06:19:04;;;;;;;16.33;9.43;;;8.60;99.90;;;;;;5013607;28;20466;-77
2023/03/25 06:21:33;;;;;;;68.73;44.53;;;8.50;99.90;;;;;;5012804;28;20209;-78
2023/03/25 06:24:02;;;;;;;9.73;6.30;;;8.40;99.90;;;;;;5010486;28;20489;-76
2023/03/25 06:26:31;;;;;;;6.20;4.40;;;8.60;99.90;;;;;;5012378;28;20668;-78
2023/03/25 06:29:07;;;;;;;2.90;1.30;;;8.90;99.90;;;;;;5013338;28;20667;-77
2023/03/25 06:31:35;;;;;;;11.40;8.90;;;8.90;99.90;;;;;;5010641;28;20296;-76
2023/03/25 06:34:04;;;;;;;6.67;4.67;;;8.80;99.90;;;;;;5013499;28;20225;-77
2023/03/25 06:36:33;;;;;;;3.70;2.10;;;8.70;99.90;;;;;;5014428;28;20222;-78
2023/03/25 06:39:01;;;;;;;1.60;1.27;;;8.80;99.90;;;;;;5013297;28;20246;-76
2023/03/25 06:41:30;;;;;;;3.90;1.70;;;8.80;99.90;;;;;;4994862;28;20210;-78
2023/03/25 06:43:58;;;;;;;0.57;0.50;;;8.90;99.90;;;;;;5010995;28;20216;-76
2023/03/25 06:46:28;;;;;;;3.00;0.80;;;8.80;99.90;;;;;;5013444;28;20209;-76
2023/03/25 06:48:56;;;;;;;0.70;0.70;;;8.80;99.90;;;;;;5013154;28;20252;-76
2023/03/25 06:51:24;;;;;;;1.90;0.80;;;8.90;99.90;;;;;;5013779;28;20249;-76
2023/03/25 06:53:53;;;;;;;1.83;0.80;;;8.90;99.90;;;;;;5013272;28;20296;-76
2023/03/25 06:56:21;;;;;;;2.57;1.00;;;8.80;99.90;;;;;;5013217;28;20217;-77
2023/03/25 06:58:49;;;;;;;1.63;0.90;;;8.80;99.90;;;;;;5012562;28;20213;-76
2023/03/25 07:01:17;;;;;;;1.40;1.07;;;8.80;99.90;;;;;;5013462;28;20245;-76
2023/03/25 07:03:47;;;;;;;1.90;0.80;;;8.70;99.90;;;;;;5012812;28;20209;-77
2023/03/25 07:06:18;;;;;;;0.87;0.53;;;8.70;99.90;;;;;;5011884;28;20248;-77
2023/03/25 07:08:47;;;;;;;1.50;0.60;;;8.60;99.90;;;;;;5013417;28;20592;-75
2023/03/25 07:11:16;;;;;;;0.77;0.60;;;8.60;99.90;;;;;;5012992;28;20209;-76
2023/03/25 07:13:44;;;;;;;1.70;0.60;;;8.60;99.90;;;;;;5012691;28;20253;-77
2023/03/25 07:16:13;;;;;;;1.50;0.60;;;8.60;99.90;;;;;;5011769;28;20300;-77
2023/03/25 07:18:42;;;;;;;1.00;0.60;;;8.60;99.90;;;;;;5012922;28;20379;-76
2023/03/25 07:21:11;;;;;;;7.30;0.90;;;8.60;99.90;;;;;;5013027;28;20202;-76
2023/03/25 07:23:39;;;;;;;1.27;0.50;;;8.60;99.90;;;;;;5012114;28;20213;-76
2023/03/25 07:26:08;;;;;;;1.87;0.73;;;8.60;99.90;;;;;;5013182;28;20224;-76
2023/03/25 07:28:37;;;;;;;1.70;0.67;;;8.60;99.90;;;;;;5013088;28;20247;-76
2023/03/25 07:31:07;;;;;;;3.97;0.67;;;8.70;99.90;;;;;;5013136;28;20216;-76
2023/03/25 07:33:36;;;;;;;0.90;0.60;;;8.80;99.90;;;;;;5012216;28;20248;-79
2023/03/25 07:36:06;;;;;;;1.57;0.80;;;9.20;99.90;;;;;;5012855;28;20233;-77
2023/03/25 07:38:36;;;;;;;2.10;0.70;;;9.60;99.90;;;;;;5013274;28;20236;-78
2023/03/25 07:41:09;;;;;;;1.57;0.67;;;9.90;99.90;;;;;;5013013;28;20267;-76
2023/03/25 07:43:38;;;;;;;2.23;0.60;;;10.20;99.90;;;;;;5011709;28;20729;-77
2023/03/25 07:46:06;;;;;;;1.37;0.70;;;10.30;99.90;;;;;;5012062;28;20608;-78
2023/03/25 07:48:35;;;;;;;0.90;0.60;;;11.80;99.90;;;;;;5012398;28;20202;-78
2023/03/25 07:51:04;;;;;;;1.20;0.60;;;13.30;99.90;;;;;;5011407;28;20692;-77
2023/03/25 07:53:32;;;;;;;0.60;0.47;;;13.80;99.90;;;;;;5012088;28;20219;-77
2023/03/25 07:56:02;;;;;;;0.40;0.40;;;13.20;99.90;;;;;;5012597;28;20233;-75
2023/03/25 07:58:30;;;;;;;1.17;0.77;;;12.60;99.90;;;;;;5011342;28;20232;-77
2023/03/25 08:00:58;;;;;;;2.00;0.47;;;12.50;99.90;;;;;;5011956;28;20241;-78
2023/03/25 08:03:26;;;;;;;1.87;0.80;;;11.90;99.90;;;;;;5011528;28;20217;-76
2023/03/25 08:05:55;;;;;;;1.63;0.80;;;11.60;99.90;;;;;;5008716;28;20203;-76
2023/03/25 08:08:23;;;;;;;2.70;1.00;;;11.20;99.90;;;;;;4992626;28;20210;-75
2023/03/25 08:10:52;;;;;;;1.43;0.60;;;11.20;99.90;;;;;;4995163;28;20245;-76
2023/03/25 08:13:22;;;;;;;2.97;0.53;;;11.90;99.90;;;;;;5012276;28;20236;-76
2023/03/25 08:15:50;;;;;;;1.27;0.60;;;11.60;99.90;;;;;;5011536;28;20324;-78
2023/03/25 08:18:19;;;;;;;1.77;0.73;;;11.40;99.90;;;;;;5012018;28;20245;-78
2023/03/25 08:20:49;;;;;;;2.00;0.67;;;11.10;99.90;;;;;;5012084;28;20205;-76
2023/03/25 08:23:21;;;;;;;2.70;0.70;;;11.20;99.90;;;;;;5011915;28;20248;-76
2023/03/25 08:25:50;;;;;;;2.20;0.60;;;11.80;99.90;;;;;;4995405;28;20218;-77
2023/03/25 08:28:21;;;;;;;0.93;0.40;;;13.10;99.90;;;;;;4993006;28;20280;-78
2023/03/25 08:30:53;;;;;;;1.67;0.70;;;14.50;99.90;;;;;;4993063;28;20730;-78
2023/03/25 08:33:26;;;;;;;0.70;0.60;;;15.40;98.40;;;;;;5000236;28;20213;-77
2023/03/25 08:35:57;;;;;;;1.23;0.50;;;16.40;94.50;;;;;;5010332;28;20229;-77
2023/03/25 08:38:30;;;;;;;1.00;0.50;;;16.30;93.10;;;;;;5009328;28;20186;-77
2023/03/25 08:41:01;;;;;;;1.87;0.73;;;17.40;91.20;;;;;;5010565;28;20217;-76
2023/03/25 08:43:31;;;;;;;1.37;0.80;;;17.30;90.10;;;;;;4996417;28;20550;-76
2023/03/25 08:46:00;;;;;;;1.57;0.70;;;16.10;91.10;;;;;;4990475;28;20222;-78
2023/03/25 08:48:29;;;;;;;1.80;0.83;;;15.30;92.10;;;;;;4993069;28;20222;-77
2023/03/25 08:50:57;;;;;;;1.57;0.70;;;14.40;93.20;;;;;;4992366;28;20215;-79
2023/03/25 08:53:26;;;;;;;3.07;0.80;;;14.10;94.40;;;;;;5011921;28;20571;-76
2023/03/25 08:55:55;;;;;;;1.57;0.80;;;14.90;96.30;;;;;;5011555;28;20241;-76
2023/03/25 08:58:24;;;;;;;2.83;0.90;;;16.00;93.50;;;;;;5014267;28;20228;-78
2023/03/25 09:00:57;;;;;;;1.80;0.80;;;16.20;92.10;;;;;;5008920;28;20218;-76
2023/03/25 09:03:26;;;;;;;2.43;0.70;;;16.60;90.70;;;;;;4995917;28;20260;-77
2023/03/25 09:05:55;;;;;;;2.20;0.80;;;15.80;90.80;;;;;;4995796;28;20620;-77
2023/03/25 09:08:24;;;;;;;2.57;0.80;;;14.40;93.80;;;;;;4996220;28;20280;-77
2023/03/25 09:10:54;;;;;;;1.40;0.77;;;13.70;96.20;;;;;;5012832;28;20245;-77
2023/03/25 09:13:22;;;;;;;1.73;0.60;;;12.70;97.60;;;;;;5015007;28;20190;-77
2023/03/25 09:15:50;;;;;;;2.47;0.77;;;11.90;99.70;;;;;;5015499;28;20337;-75
2023/03/25 09:18:21;;;;;;;3.17;0.70;;;11.30;99.90;;;;;;5015150;28;20659;-78
2023/03/25 09:20:50;;;;;;;1.70;0.80;;;11.10;99.90;;;;;;5014662;28;20217;-78
2023/03/25 09:23:18;;;;;;;1.13;0.50;;;10.90;99.90;;;;;;5014954;28;20264;-77
2023/03/25 09:25:47;;;;;;;1.80;0.67;;;10.50;99.90;;;;;;5015521;28;20201;-76
2023/03/25 09:28:15;;;;;;;3.10;0.80;;;10.30;99.90;;;;;;5014680;28;20205;-76
2023/03/25 09:30:44;;;;;;;0.53;0.50;;;10.20;99.90;;;;;;5015773;28;20210;-79
2023/03/25 09:33:13;;;;;;;1.60;0.63;;;10.10;99.90;;;;;;5017887;28;20216;-79
2023/03/25 09:35:43;;;;;;;2.13;0.70;;;10.30;99.90;;;;;;5014880;28;20234;-77
2023/03/25 09:38:11;;;;;;;0.83;0.47;;;10.70;99.90;;;;;;5015096;28;20213;-76
2023/03/25 09:40:41;;;;;;;1.90;0.50;;;10.90;99.90;;;;;;5014606;28;20218;-75
2023/03/25 09:43:24;;;;;;;0.83;0.50;;;11.50;99.90;;;;;;5014675;28;20229;-76
2023/03/25 09:45:53;;;;;;;0.73;0.50;;;12.60;99.90;;;;;;5013885;28;20668;-75
2023/03/25 09:48:29;;;;;;;0.73;0.43;;;13.80;99.90;;;;;;5014733;28;20304;-76
2023/03/25 09:51:03;;;;;;;0.50;0.50;;;14.60;99.90;;;;;;5015003;28;20189;-77
2023/03/25 09:53:36;;;;;;;0.40;0.40;;;15.30;99.50;;;;;;5013124;28;20217;-77
2023/03/25 09:56:10;;;;;;;0.87;0.37;;;16.20;95.80;;;;;;5014385;28;20245;-76
2023/03/25 09:58:43;;;;;;;0.77;0.50;;;16.40;92.70;;;;;;5014489;28;20210;-75
2023/03/25 10:01:33;;;;;;;0.93;0.40;;;16.20;93.10;;;;;;5013880;28;20206;-79
2023/03/25 10:04:18;;;;;;;1.23;0.70;;;16.60;93.70;;;;;;5013969;28;20671;-78
2023/03/25 10:06:53;;;;;;;1.43;0.50;;;17.10;91.00;;;;;;5013953;28;20614;-77
2023/03/25 10:09:33;;;;;;;1.47;0.60;;;16.20;91.80;;;;;;5009756;28;20211;-76
2023/03/25 10:12:08;;;;;;;2.10;0.80;;;16.00;92.50;;;;;;5014007;28;20225;-76
2023/03/25 10:14:45;;;;;;;1.93;0.60;;;15.50;91.70;;;;;;5013906;28;20216;-77
2023/03/25 10:17:21;;;;;;;2.73;0.73;;;14.50;93.80;;;;;;5013213;28;20220;-77
2023/03/25 10:19:59;;;;;;;1.57;0.50;;;14.30;95.50;;;;;;5014121;28;20225;-77
2023/03/25 10:22:36;;;;;;;0.73;0.50;;;15.00;96.50;;;;;;5013746;28;20194;-77
2023/03/25 10:25:13;;;;;;;2.17;0.87;;;15.70;94.60;;;;;;5014015;28;20245;-78
2023/03/25 10:27:45;;;;;;;1.77;0.70;;;15.90;93.10;;;;;;5013066;28;20205;-78
2023/03/25 10:30:17;;;;;;;2.63;0.80;;;15.70;93.50;;;;;;5014046;28;20193;-77
2023/03/25 10:32:50;;;;;;;2.33;0.97;;;15.30;92.00;;;;;;5013344;28;20743;-78
2023/03/25 10:35:22;;;;;;;0.97;0.60;;;14.10;94.00;;;;;;5015426;28;20537;-77
2023/03/25 10:37:54;;;;;;;3.27;0.73;;;13.70;95.70;;;;;;5015101;28;20577;-76
2023/03/25 10:40:28;;;;;;;2.50;0.90;;;13.40;96.50;;;;;;5017508;28;20267;-78
2023/03/25 10:43:13;;;;;;;2.03;1.00;;;13.60;97.70;;;;;;5014415;28;20534;-76
2023/03/25 10:45:42;;;;;;;1.63;0.67;;;14.20;97.30;;;;;;4994122;28;20576;-75
2023/03/25 10:48:15;;;;;;;1.83;0.93;;;14.40;96.70;;;;;;4994033;28;20624;-76
2023/03/25 10:50:43;;;;;;;1.87;0.73;;;14.30;95.10;;;;;;4994110;28;20198;-76
2023/03/25 10:53:20;;;;;;;1.80;0.60;;;13.80;93.30;;;;;;5002436;28;20201;-76
2023/03/25 10:55:54;;;;;;;3.33;1.07;;;13.30;95.00;;;;;;5013028;28;20225;-78
2023/03/25 10:58:23;;;;;;;4.20;3.23;;;12.80;97.00;;;;;;5013403;28;20216;-78
2023/03/25 11:00:52;;;;;;;5.47;4.07;;;12.40;97.70;;;;;;5012166;28;20237;-76
2023/03/25 11:03:25;;;;;;;3.60;2.30;;;12.30;98.30;;;;;;5013057;28;20247;-77
2023/03/25 11:05:54;;;;;;;3.50;1.63;;;12.40;99.50;;;;;;5013398;28;20687;-79
2023/03/25 11:08:24;;;;;;;2.67;1.00;;;12.30;99.90;;;;;;5012260;28;20575;-76
2023/03/25 11:10:56;;;;;;;5.47;1.40;;;12.10;99.90;;;;;;5013415;28;20627;-77
2023/03/25 11:13:25;;;;;;;1.47;0.83;;;12.20;99.90;;;;;;5013366;28;20232;-77
2023/03/25 11:15:57;;;;;;;2.07;1.07;;;11.80;99.90;;;;;;5012704;28;20236;-76
2023/03/25 11:18:29;;;;;;;2.13;1.03;;;12.00;99.90;;;;;;5013607;28;20245;-78
2023/03/25 11:21:02;;;;;;;1.90;1.03;;;13.00;99.90;;;;;;5014043;28;20288;-76
2023/03/25 11:23:35;;;;;;;1.40;0.93;;;14.10;99.70;;;;;;5012765;28;20212;-75
2023/03/25 11:26:06;;;;;;;1.63;1.13;;;15.40;97.30;;;;;;5022052;28;20197;-76
2023/03/25 11:28:38;;;;;;;1.77;0.90;;;16.40;95.00;;;;;;5021427;28;20247;-80
2023/03/25 11:31:13;;;;;;;1.20;0.70;;;16.30;91.10;;;;;;5018767;28;20198;-78
2023/03/25 11:33:43;;;;;;;1.10;0.50;;;15.80;91.40;;;;;;5018009;28;20196;-75
2023/03/25 11:36:23;;;;;;;0.93;0.57;;;15.70;91.50;;;;;;5014747;28;20312;-77
2023/03/25 11:38:57;;;;;;;0.70;0.70;;;15.30;92.20;;;;;;5017012;28;20291;-76
2023/03/25 11:41:29;;;;;;;2.20;0.63;;;15.40;93.10;;;;;;5016413;28;20193;-77
2023/03/25 11:43:58;;;;;;;1.20;0.47;;;15.90;91.20;;;;;;5016158;28;20244;-76
2023/03/25 11:46:26;;;;;;;0.40;0.40;;;16.20;90.70;;;;;;5015835;28;20206;-77
2023/03/25 11:48:55;;;;;;;0.40;0.40;;;16.20;89.40;;;;;;5014436;28;20216;-79
2023/03/25 11:51:27;;;;;;;0.70;0.40;;;16.00;89.20;;;;;;5014934;28;20213;-77
2023/03/25 11:54:00;;;;;;;0.60;0.60;;;16.00;89.80;;;;;;5014660;28;20212;-76
2023/03/25 11:56:33;;;;;;;0.47;0.40;;;15.70;91.30;;;;;;5015787;28;20224;-80
2023/03/25 11:59:07;;;;;;;0.87;0.40;;;15.80;91.20;;;;;;5013376;28;20569;-76
2023/03/25 12:01:41;;;;;;;1.17;0.60;;;15.20;90.70;;;;;;5013740;28;20293;-77
2023/03/25 12:04:15;;;;;;;1.77;0.37;;;15.00;91.60;;;;;;5013136;28;20299;-77
2023/03/25 12:06:56;;;;;;;0.60;0.47;;;14.80;92.50;;;;;;5012372;28;20297;-79
2023/03/25 12:09:31;;;;;;;1.63;0.63;;;14.60;92.50;;;;;;5011914;28;20244;-79
2023/03/25 12:12:40;;;;;;;3.50;0.50;;;14.00;92.20;;;;;;5012258;28;20182;-76
2023/03/25 12:15:22;;;;;;;0.57;0.30;;;13.70;94.10;;;;;;5012543;28;20308;-77
2023/03/25 12:18:04;;;;;;;0.43;0.40;;;13.90;94.00;;;;;;5012584;28;20213;-77
2023/03/25 12:20:40;;;;;;;0.83;0.43;;;14.00;95.20;;;;;;5012635;28;20236;-77
2023/03/25 12:23:20;;;;;;;0.37;0.30;;;13.70;94.00;;;;;;5012349;28;20208;-77
2023/03/25 12:25:58;;;;;;;0.40;0.30;;;14.20;94.70;;;;;;5012616;28;20603;-77
2023/03/25 12:28:45;;;;;;;0.30;0.30;;;14.60;93.70;;;;;;5011948;28;20749;-77
2023/03/25 12:31:25;;;;;;;0.30;0.30;;;14.50;93.90;;;;;;5012467;28;20238;-80
2023/03/25 12:34:05;;;;;;;2.90;0.50;;;14.30;93.00;;;;;;5015591;28;20290;-77
2023/03/25 12:36:43;;;;;;;0.30;0.30;;;13.50;93.00;;;;;;5015008;28;20251;-78
2023/03/25 12:39:23;;;;;;;0.20;0.20;;;13.70;94.40;;;;;;5016489;28;20280;-76
2023/03/25 12:42:21;;;;;;;0.93;0.50;;;13.50;93.10;;;;;;5016219;28;20210;-78
2023/03/25 12:45:12;;;;;;;1.63;0.60;;;13.60;94.60;;;;;;5015274;28;20206;-77
2023/03/25 12:47:43;;;;;;;0.60;0.40;;;13.00;95.60;;;;;;5019866;28;20186;-76
2023/03/25 12:50:34;;;;;;;0.97;0.50;;;12.60;95.60;;;;;;5017091;28;20209;-76
2023/03/25 12:53:22;;;;;;;1.23;0.57;;;12.50;96.50;;;;;;5014849;28;20267;-75
2023/03/25 12:56:04;;;;;;;1.13;0.50;;;12.50;97.30;;;;;;5015904;28;20261;-76
2023/03/25 12:58:50;;;;;;;1.00;0.57;;;12.50;97.30;;;;;;4998239;28;20225;-78
2023/03/25 13:01:28;;;;;;;1.10;0.57;;;12.20;97.30;;;;;;5015636;28;20190;-77
2023/03/25 13:04:33;;;;;;;0.50;0.43;;;12.10;96.90;;;;;;5000241;28;20205;-76
2023/03/25 13:07:04;;;;;;;0.50;0.43;;;12.10;98.10;;;;;;5015936;28;20641;-78
2023/03/25 13:09:36;;;;;;;0.63;0.50;;;12.20;99.20;;;;;;5016179;28;20595;-77
2023/03/25 13:12:11;;;;;;;1.60;0.40;;;12.10;98.10;;;;;;5013958;28;20208;-78
2023/03/25 13:14:51;;;;;;;3.60;0.50;;;11.70;97.50;;;;;;5016346;28;20240;-76
2023/03/25 13:17:26;;;;;;;0.40;0.40;;;11.50;98.30;;;;;;5016237;28;20225;-78
2023/03/25 13:19:59;;;;;;;0.97;0.50;;;11.70;99.30;;;;;;5014088;28;20263;-78